createdAt,value
2023-03-02T00:00:51.070Z,0.89
2023-03-02T00:01:51.033Z,0.88
2023-03-02T00:02:51.110Z,0.80
2023-03-02T00:03:51.083Z,0.78
2023-03-02T00:04:51.032Z,0.75
2023-03-02T00:05:50.980Z,0.71
2023-03-02T00:06:51.011Z,0.70
2023-03-02T00:07:50.972Z,0.71
2023-03-02T00:08:50.972Z,0.70
2023-03-02T00:09:50.944Z,0.70
2023-03-02T00:10:50.956Z,0.71
2023-03-02T00:11:50.936Z,0.70
2023-03-02T00:12:50.932Z,0.67
2023-03-02T00:13:50.893Z,0.64
2023-03-02T00:14:50.914Z,0.60
2023-03-02T00:15:50.942Z,0.57
2023-03-02T00:16:50.876Z,0.58
2023-03-02T00:17:51.814Z,0.60
2023-03-02T00:18:50.863Z,0.58
2023-03-02T00:19:50.858Z,0.57
2023-03-02T00:20:50.838Z,0.57
2023-03-02T00:21:50.803Z,0.57
2023-03-02T00:22:50.820Z,0.57
2023-03-02T00:23:50.763Z,0.52
2023-03-02T00:24:50.814Z,0.49
2023-03-02T00:25:50.766Z,0.49
2023-03-02T00:26:50.803Z,0.49
2023-03-02T00:27:50.738Z,0.43
2023-03-02T00:28:50.745Z,0.39
2023-03-02T00:29:50.735Z,0.41
2023-03-02T00:30:50.732Z,0.41
2023-03-02T00:31:50.847Z,0.41
2023-03-02T00:32:50.698Z,0.42
2023-03-02T00:33:50.687Z,0.39
2023-03-02T00:34:50.689Z,0.41
2023-03-02T00:35:50.699Z,0.39
2023-03-02T00:36:50.668Z,0.39
2023-03-02T00:37:50.642Z,0.41
2023-03-02T00:38:50.645Z,0.39
2023-03-02T00:39:50.646Z,0.36
2023-03-02T00:40:50.627Z,0.34
2023-03-02T00:41:50.583Z,0.33
2023-03-02T00:42:50.606Z,0.30
2023-03-02T00:43:50.688Z,0.31
2023-03-02T00:44:50.568Z,0.34
2023-03-02T00:45:50.560Z,0.31
2023-03-02T00:46:50.691Z,0.28
2023-03-02T00:47:50.527Z,0.27
2023-03-02T00:48:50.534Z,0.28
2023-03-02T00:49:50.490Z,0.28
2023-03-02T00:50:50.511Z,0.27
2023-03-02T00:51:50.491Z,0.24
2023-03-02T00:52:50.477Z,0.24
2023-03-02T00:53:50.460Z,0.23
2023-03-02T00:54:50.482Z,0.21
2023-03-02T00:55:50.445Z,0.20
2023-03-02T00:56:50.468Z,0.18
2023-03-02T00:57:50.413Z,0.15
2023-03-02T00:58:50.417Z,0.15
2023-03-02T00:59:51.344Z,0.13
2023-03-02T01:00:50.424Z,0.15
2023-03-02T01:01:51.328Z,0.13
2023-03-02T01:02:50.467Z,0.15
2023-03-02T01:03:50.347Z,0.13
2023-03-02T01:04:50.360Z,0.12
2023-03-02T01:05:50.319Z,0.10
2023-03-02T01:06:50.346Z,0.09
2023-03-02T01:07:50.297Z,0.06
2023-03-02T01:08:50.353Z,0.05
2023-03-02T01:09:50.285Z,0.03
2023-03-02T01:10:50.298Z,0.00
2023-03-02T01:11:50.267Z,0.00
2023-03-02T01:12:50.280Z,0.00
2023-03-02T01:13:50.244Z,-0.01
2023-03-02T01:14:50.245Z,-0.04
2023-03-02T01:15:50.252Z,-0.05
2023-03-02T01:16:50.228Z,-0.06
2023-03-02T01:17:50.203Z,-0.06
2023-03-02T01:18:50.254Z,-0.09
2023-03-02T01:19:50.186Z,-0.08
2023-03-02T01:20:50.193Z,-0.09
2023-03-02T01:21:50.162Z,-0.11
2023-03-02T01:22:50.169Z,-0.12
2023-03-02T01:23:50.145Z,-0.11
2023-03-02T01:24:50.143Z,-0.09
2023-03-02T01:25:50.112Z,-0.09
2023-03-02T01:26:50.139Z,-0.11
2023-03-02T01:27:50.103Z,-0.16
2023-03-02T01:28:50.986Z,-0.15
2023-03-02T01:29:50.055Z,-0.16
2023-03-02T01:30:50.073Z,-0.16
2023-03-02T01:31:50.176Z,-0.16
2023-03-02T01:32:50.063Z,-0.15
2023-03-02T01:33:50.042Z,-0.15
2023-03-02T01:34:50.050Z,-0.13
2023-03-02T01:35:50.064Z,-0.11
2023-03-02T01:36:50.052Z,-0.09
2023-03-02T01:37:49.971Z,-0.05
2023-03-02T01:38:50.059Z,-0.04
2023-03-02T01:39:49.957Z,-0.01
2023-03-02T01:40:49.975Z,0.00
2023-03-02T01:41:49.932Z,0.02
2023-03-02T01:42:49.947Z,0.03
2023-03-02T01:43:49.925Z,0.06
2023-03-02T01:44:49.925Z,0.02
2023-03-02T01:45:49.973Z,-0.05
2023-03-02T01:46:49.930Z,-0.06
2023-03-02T01:47:49.880Z,-0.01
2023-03-02T01:48:49.889Z,-0.01
2023-03-02T01:49:49.862Z,-0.01
2023-03-02T01:50:49.865Z,-0.01
2023-03-02T01:51:49.865Z,0.00
2023-03-02T01:52:49.859Z,-0.01
2023-03-02T01:53:49.809Z,0.02
2023-03-02T01:54:49.970Z,-0.01
2023-03-02T01:55:50.735Z,-0.04
2023-03-02T01:56:49.787Z,-0.01
2023-03-02T01:57:49.787Z,-0.01
2023-03-02T01:58:49.786Z,-0.04
2023-03-02T01:59:49.751Z,-0.01
2023-03-02T02:00:50.765Z,0.00
2023-03-02T02:01:49.724Z,0.03
2023-03-02T02:02:49.851Z,0.03
2023-03-02T02:03:55.919Z,0.06
2023-03-02T02:04:49.723Z,0.09
2023-03-02T02:05:49.686Z,0.09
2023-03-02T02:06:49.701Z,0.10
2023-03-02T02:07:49.710Z,0.10
2023-03-02T02:08:49.663Z,0.06
2023-03-02T02:09:49.628Z,0.06
2023-03-02T02:10:49.648Z,0.05
2023-03-02T02:11:49.621Z,0.06
2023-03-02T02:12:49.659Z,0.05
2023-03-02T02:13:49.577Z,0.02
2023-03-02T02:14:49.604Z,-0.05
2023-03-02T02:15:49.608Z,-0.06
2023-03-02T02:16:49.648Z,-0.06
2023-03-02T02:17:49.567Z,-0.08
2023-03-02T02:18:49.557Z,-0.06
2023-03-02T02:19:49.553Z,-0.06
2023-03-02T02:20:49.532Z,-0.08
2023-03-02T02:21:49.535Z,-0.05
2023-03-02T02:22:49.500Z,-0.08
2023-03-02T02:23:49.532Z,-0.12
2023-03-02T02:24:49.466Z,-0.13
2023-03-02T02:25:49.490Z,-0.15
2023-03-02T02:26:49.444Z,-0.13
2023-03-02T02:27:49.774Z,-0.13
2023-03-02T02:28:49.424Z,-0.15
2023-03-02T02:29:49.444Z,-0.16
2023-03-02T02:30:49.431Z,-0.15
2023-03-02T02:31:49.497Z,-0.19
2023-03-02T02:32:49.414Z,-0.26
2023-03-02T02:33:49.416Z,-0.26
2023-03-02T02:34:49.387Z,-0.26
2023-03-02T02:35:49.424Z,-0.26
2023-03-02T02:36:49.330Z,-0.26
2023-03-02T02:37:49.356Z,-0.24
2023-03-02T02:38:49.306Z,-0.24
2023-03-02T02:39:49.365Z,-0.26
2023-03-02T02:40:49.332Z,-0.26
2023-03-02T02:41:49.323Z,-0.27
2023-03-02T02:42:49.310Z,-0.30
2023-03-02T02:43:49.304Z,-0.30
2023-03-02T02:44:49.276Z,-0.31
2023-03-02T02:45:49.343Z,-0.33
2023-03-02T02:46:49.254Z,-0.33
2023-03-02T02:47:49.364Z,-0.31
2023-03-02T02:48:49.263Z,-0.31
2023-03-02T02:49:49.237Z,-0.33
2023-03-02T02:50:49.187Z,-0.33
2023-03-02T02:51:49.223Z,-0.34
2023-03-02T02:52:49.191Z,-0.36
2023-03-02T02:53:49.190Z,-0.36
2023-03-02T02:54:49.169Z,-0.39
2023-03-02T02:55:49.173Z,-0.39
2023-03-02T02:56:49.165Z,-0.42
2023-03-02T02:57:49.197Z,-0.44
2023-03-02T02:58:49.131Z,-0.44
2023-03-02T02:59:49.121Z,-0.45
2023-03-02T03:00:49.146Z,-0.47
2023-03-02T03:01:49.112Z,-0.47
2023-03-02T03:02:49.075Z,-0.48
2023-03-02T03:03:49.076Z,-0.51
2023-03-02T03:04:49.055Z,-0.51
2023-03-02T03:05:49.054Z,-0.52
2023-03-02T03:06:49.013Z,-0.51
2023-03-02T03:07:49.052Z,-0.50
2023-03-02T03:08:48.986Z,-0.51
2023-03-02T03:09:49.140Z,-0.51
2023-03-02T03:10:49.045Z,-0.51
2023-03-02T03:11:49.027Z,-0.54
2023-03-02T03:12:48.955Z,-0.59
2023-03-02T03:13:48.988Z,-0.60
2023-03-02T03:14:48.969Z,-0.60
2023-03-02T03:15:48.935Z,-0.63
2023-03-02T03:16:48.935Z,-0.68
2023-03-02T03:17:48.909Z,-0.66
2023-03-02T03:18:48.890Z,-0.66
2023-03-02T03:19:48.905Z,-0.65
2023-03-02T03:20:48.938Z,-0.63
2023-03-02T03:21:48.867Z,-0.66
2023-03-02T03:22:48.838Z,-0.66
2023-03-02T03:23:49.003Z,-0.66
2023-03-02T03:24:48.804Z,-0.63
2023-03-02T03:25:48.835Z,-0.63
2023-03-02T03:26:48.806Z,-0.62
2023-03-02T03:27:48.840Z,-0.65
2023-03-02T03:28:48.763Z,-0.66
2023-03-02T03:29:48.811Z,-0.69
2023-03-02T03:30:48.792Z,-0.72
2023-03-02T03:31:48.799Z,-0.77
2023-03-02T03:32:48.743Z,-0.78
2023-03-02T03:33:48.750Z,-0.77
2023-03-02T03:34:48.734Z,-0.77
2023-03-02T03:35:48.813Z,-0.75
2023-03-02T03:36:48.713Z,-0.72
2023-03-02T03:37:48.741Z,-0.68
2023-03-02T03:38:48.663Z,-0.68
2023-03-02T03:39:48.720Z,-0.66
2023-03-02T03:40:48.648Z,-0.63
2023-03-02T03:41:48.641Z,-0.60
2023-03-02T03:42:48.662Z,-0.57
2023-03-02T03:43:48.647Z,-0.59
2023-03-02T03:44:48.605Z,-0.59
2023-03-02T03:45:48.708Z,-0.60
2023-03-02T03:46:48.591Z,-0.63
2023-03-02T03:47:48.610Z,-0.62
2023-03-02T03:48:48.557Z,-0.62
2023-03-02T03:49:48.605Z,-0.65
2023-03-02T03:50:48.588Z,-0.66
2023-03-02T03:51:48.542Z,-0.66
2023-03-02T03:52:48.605Z,-0.65
2023-03-02T03:53:48.591Z,-0.65
2023-03-02T03:54:48.480Z,-0.65
2023-03-02T03:55:48.545Z,-0.63
2023-03-02T03:56:48.473Z,-0.65
2023-03-02T03:57:48.494Z,-0.66
2023-03-02T03:58:48.518Z,-0.70
2023-03-02T03:59:48.463Z,-0.77
2023-03-02T04:00:48.447Z,-0.77
2023-03-02T04:01:48.503Z,-0.77
2023-03-02T04:02:48.458Z,-0.77
2023-03-02T04:03:48.408Z,-0.77
2023-03-02T04:04:48.443Z,-0.80
2023-03-02T04:05:48.394Z,-0.78
2023-03-02T04:06:48.400Z,-0.84
2023-03-02T04:07:48.395Z,-0.86
2023-03-02T04:08:48.363Z,-0.91
2023-03-02T04:09:48.390Z,-0.92
2023-03-02T04:10:48.322Z,-0.97
2023-03-02T04:11:48.329Z,-0.97
2023-03-02T04:12:48.294Z,-1.03
2023-03-02T04:13:48.317Z,-1.03
2023-03-02T04:14:48.266Z,-1.05
2023-03-02T04:15:48.377Z,-1.05
2023-03-02T04:16:48.282Z,-1.05
2023-03-02T04:17:48.316Z,-1.06
2023-03-02T04:18:48.224Z,-1.07
2023-03-02T04:19:48.237Z,-1.05
2023-03-02T04:20:48.214Z,-1.03
2023-03-02T04:21:48.260Z,-1.02
2023-03-02T04:22:48.172Z,-1.00
2023-03-02T04:23:48.207Z,-1.00
2023-03-02T04:24:48.154Z,-1.02
2023-03-02T04:25:48.168Z,-1.02
2023-03-02T04:26:48.139Z,-0.99
2023-03-02T04:27:48.153Z,-0.99
2023-03-02T04:28:48.183Z,-0.99
2023-03-02T04:29:48.141Z,-0.99
2023-03-02T04:30:48.163Z,-1.00
2023-03-02T04:31:48.112Z,-1.00
2023-03-02T04:32:48.121Z,-1.02
2023-03-02T04:33:48.250Z,-1.00
2023-03-02T04:34:48.098Z,-1.00
2023-03-02T04:35:48.125Z,-0.99
2023-03-02T04:36:48.033Z,-1.02
2023-03-02T04:37:48.058Z,-1.00
2023-03-02T04:38:48.028Z,-1.00
2023-03-02T04:39:48.059Z,-1.02
2023-03-02T04:40:48.021Z,-1.00
2023-03-02T04:41:48.035Z,-1.02
2023-03-02T04:42:48.060Z,-1.06
2023-03-02T04:43:47.982Z,-1.06
2023-03-02T04:44:48.006Z,-1.07
2023-03-02T04:45:47.963Z,-1.07
2023-03-02T04:46:48.019Z,-1.10
2023-03-02T04:47:47.960Z,-1.10
2023-03-02T04:48:47.915Z,-1.10
2023-03-02T04:49:47.947Z,-1.10
2023-03-02T04:50:47.901Z,-1.10
2023-03-02T04:51:47.935Z,-1.12
2023-03-02T04:52:47.873Z,-1.13
2023-03-02T04:53:47.899Z,-1.17
2023-03-02T04:54:47.887Z,-1.18
2023-03-02T04:55:47.886Z,-1.20
2023-03-02T04:56:47.816Z,-1.23
2023-03-02T04:57:47.873Z,-1.21
2023-03-02T04:58:47.797Z,-1.21
2023-03-02T04:59:47.837Z,-1.24
2023-03-02T05:00:47.823Z,-1.23
2023-03-02T05:01:47.938Z,-1.24
2023-03-02T05:02:47.770Z,-1.25
2023-03-02T05:03:47.807Z,-1.25
2023-03-02T05:04:47.871Z,-1.30
2023-03-02T05:05:47.759Z,-1.33
2023-03-02T05:06:47.754Z,-1.36
2023-03-02T05:07:47.787Z,-1.35
2023-03-02T05:08:47.720Z,-1.39
2023-03-02T05:09:47.727Z,-1.42
2023-03-02T05:10:47.674Z,-1.42
2023-03-02T05:11:47.715Z,-1.43
2023-03-02T05:12:47.659Z,-1.41
2023-03-02T05:13:47.659Z,-1.39
2023-03-02T05:14:47.651Z,-1.38
2023-03-02T05:15:47.771Z,-1.36
2023-03-02T05:16:47.605Z,-1.39
2023-03-02T05:17:47.763Z,-1.41
2023-03-02T05:18:47.600Z,-1.43
2023-03-02T05:19:47.620Z,-1.43
2023-03-02T05:20:47.558Z,-1.46
2023-03-02T05:21:47.584Z,-1.45
2023-03-02T05:22:47.587Z,-1.46
2023-03-02T05:23:47.645Z,-1.48
2023-03-02T05:24:47.517Z,-1.45
2023-03-02T05:25:47.542Z,-1.46
2023-03-02T05:26:47.497Z,-1.45
2023-03-02T05:27:47.534Z,-1.46
2023-03-02T05:28:47.521Z,-1.46
2023-03-02T05:29:47.509Z,-1.45
2023-03-02T05:30:47.461Z,-1.45
2023-03-02T05:31:47.628Z,-1.43
2023-03-02T05:32:47.463Z,-1.43
2023-03-02T05:33:47.443Z,-1.45
2023-03-02T05:34:47.425Z,-1.43
2023-03-02T05:35:47.461Z,-1.45
2023-03-02T05:36:47.408Z,-1.45
2023-03-02T05:37:47.431Z,-1.48
2023-03-02T05:38:47.385Z,-1.46
2023-03-02T05:39:47.383Z,-1.48
2023-03-02T05:40:47.370Z,-1.49
2023-03-02T05:41:47.385Z,-1.49
2023-03-02T05:42:47.339Z,-1.53
2023-03-02T05:43:47.421Z,-1.49
2023-03-02T05:44:47.329Z,-1.51
2023-03-02T05:45:47.370Z,-1.54
2023-03-02T05:46:47.418Z,-1.56
2023-03-02T05:47:47.322Z,-1.56
2023-03-02T05:48:47.275Z,-1.59
2023-03-02T05:49:47.318Z,-1.57
2023-03-02T05:50:47.282Z,-1.56
2023-03-02T05:51:47.254Z,-1.54
2023-03-02T05:52:47.280Z,-1.53
2023-03-02T05:53:47.239Z,-1.53
2023-03-02T05:54:47.315Z,-1.54
2023-03-02T05:55:47.326Z,-1.54
2023-03-02T05:56:49.934Z,-1.56
2023-03-02T05:57:47.211Z,-1.59
2023-03-02T05:58:47.150Z,-1.62
2023-03-02T05:59:47.206Z,-1.62
2023-03-02T06:00:47.156Z,-1.64
2023-03-02T06:01:47.213Z,-1.64
2023-03-02T06:02:47.222Z,-1.62
2023-03-02T06:03:47.138Z,-1.63
2023-03-02T06:04:47.142Z,-1.63
2023-03-02T06:05:47.149Z,-1.66
2023-03-02T06:06:47.196Z,-1.63
2023-03-02T06:07:47.496Z,-1.63
2023-03-02T06:08:47.099Z,-1.62
2023-03-02T06:09:47.069Z,-1.63
2023-03-02T06:10:47.039Z,-1.64
2023-03-02T06:11:47.042Z,-1.66
2023-03-02T06:12:47.024Z,-1.64
2023-03-02T06:13:47.042Z,-1.66
2023-03-02T06:14:47.103Z,-1.66
2023-03-02T06:15:46.987Z,-1.66
2023-03-02T06:16:47.079Z,-1.67
2023-03-02T06:17:47.943Z,-1.67
2023-03-02T06:18:47.035Z,-1.66
2023-03-02T06:19:46.953Z,-1.66
2023-03-02T06:20:46.921Z,-1.62
2023-03-02T06:21:46.957Z,-1.60
2023-03-02T06:22:46.982Z,-1.60
2023-03-02T06:23:46.962Z,-1.57
2023-03-02T06:24:46.906Z,-1.57
2023-03-02T06:25:46.892Z,-1.54
2023-03-02T06:26:47.046Z,-1.56
2023-03-02T06:27:46.887Z,-1.56
2023-03-02T06:28:52.691Z,-1.57
2023-03-02T06:29:47.870Z,-1.56
2023-03-02T06:30:46.825Z,-1.54
2023-03-02T06:31:46.933Z,-1.49
2023-03-02T06:32:46.886Z,-1.49
2023-03-02T06:33:46.801Z,-1.45
2023-03-02T06:34:46.931Z,-1.41
2023-03-02T06:35:47.006Z,-1.39
2023-03-02T06:36:46.820Z,-1.38
2023-03-02T06:37:46.759Z,-1.39
2023-03-02T06:38:46.757Z,-1.39
2023-03-02T06:39:46.791Z,-1.36
2023-03-02T06:40:46.743Z,-1.33
2023-03-02T06:41:46.721Z,-1.28
2023-03-02T06:42:46.713Z,-1.27
2023-03-02T06:43:46.657Z,-1.24
2023-03-02T06:44:46.705Z,-1.23
2023-03-02T06:45:46.670Z,-1.17
2023-03-02T06:46:46.650Z,-1.15
2023-03-02T06:47:46.633Z,-1.12
2023-03-02T06:48:46.648Z,-1.10
2023-03-02T06:49:46.626Z,-1.07
2023-03-02T06:50:46.632Z,-1.06
2023-03-02T06:51:46.616Z,-1.03
2023-03-02T06:52:46.618Z,-1.02
2023-03-02T06:53:46.566Z,-1.00
2023-03-02T06:54:46.590Z,-0.97
2023-03-02T06:55:46.563Z,-0.95
2023-03-02T06:56:46.593Z,-0.94
2023-03-02T06:57:46.519Z,-0.91
2023-03-02T06:58:46.631Z,-0.84
2023-03-02T06:59:46.507Z,-0.87
2023-03-02T07:00:46.661Z,-0.83
2023-03-02T07:01:46.521Z,-0.83
2023-03-02T07:02:46.501Z,-0.80
2023-03-02T07:03:46.481Z,-0.78
2023-03-02T07:04:46.508Z,-0.73
2023-03-02T07:05:46.526Z,-0.70
2023-03-02T07:06:46.510Z,-0.69
2023-03-02T07:07:46.413Z,-0.66
2023-03-02T07:08:46.460Z,-0.63
2023-03-02T07:09:46.389Z,-0.60
2023-03-02T07:10:46.413Z,-0.59
2023-03-02T07:11:46.381Z,-0.52
2023-03-02T07:12:46.441Z,-0.50
2023-03-02T07:13:46.362Z,-0.45
2023-03-02T07:14:46.401Z,-0.44
2023-03-02T07:15:46.325Z,-0.39
2023-03-02T07:16:46.408Z,-0.36
2023-03-02T07:17:46.314Z,-0.34
2023-03-02T07:18:46.315Z,-0.29
2023-03-02T07:19:46.312Z,-0.27
2023-03-02T07:20:46.306Z,-0.23
2023-03-02T07:21:46.292Z,-0.18
2023-03-02T07:22:46.280Z,-0.13
2023-03-02T07:23:46.267Z,-0.11
2023-03-02T07:24:46.261Z,-0.08
2023-03-02T07:25:46.240Z,-0.06
2023-03-02T07:26:46.289Z,0.00
2023-03-02T07:27:46.235Z,0.03
2023-03-02T07:28:46.235Z,0.07
2023-03-02T07:29:46.192Z,0.13
2023-03-02T07:30:46.248Z,0.20
2023-03-02T07:31:46.153Z,0.24
2023-03-02T07:32:46.224Z,0.30
2023-03-02T07:33:46.145Z,0.33
2023-03-02T07:34:46.168Z,0.36
2023-03-02T07:35:46.175Z,0.42
2023-03-02T07:36:46.155Z,0.49
2023-03-02T07:37:46.129Z,0.52
2023-03-02T07:38:46.110Z,0.60
2023-03-02T07:39:46.301Z,0.62
2023-03-02T07:40:46.157Z,0.62
2023-03-02T07:41:46.036Z,0.70
2023-03-02T07:42:46.067Z,0.78
2023-03-02T07:43:46.018Z,0.82
2023-03-02T07:44:46.091Z,0.86
2023-03-02T07:45:46.006Z,0.92
2023-03-02T07:46:46.122Z,0.98
2023-03-02T07:47:46.938Z,1.04
2023-03-02T07:48:46.001Z,1.08
2023-03-02T07:49:45.955Z,1.15
2023-03-02T07:50:45.980Z,1.24
2023-03-02T07:51:45.927Z,1.26
2023-03-02T07:52:45.959Z,1.32
2023-03-02T07:53:45.963Z,1.34
2023-03-02T07:54:45.941Z,1.39
2023-03-02T07:55:45.904Z,1.46
2023-03-02T07:56:45.911Z,1.51
2023-03-02T07:57:45.878Z,1.51
2023-03-02T07:58:46.834Z,1.54
2023-03-02T07:59:45.864Z,1.58
2023-03-02T08:00:45.854Z,1.61
2023-03-02T08:01:45.834Z,1.65
2023-03-02T08:02:45.880Z,1.71
2023-03-02T08:03:45.817Z,1.75
2023-03-02T08:04:45.875Z,1.76
2023-03-02T08:05:45.794Z,1.82
2023-03-02T08:06:45.801Z,1.85
2023-03-02T08:07:46.726Z,1.89
2023-03-02T08:08:45.791Z,1.91
2023-03-02T08:09:45.735Z,1.93
2023-03-02T08:10:45.780Z,1.98
2023-03-02T08:11:45.704Z,2.04
2023-03-02T08:12:45.728Z,2.08
2023-03-02T08:13:45.764Z,2.09
2023-03-02T08:14:45.725Z,2.06
2023-03-02T08:15:45.685Z,2.04
2023-03-02T08:16:45.706Z,2.06
2023-03-02T08:17:45.660Z,2.06
2023-03-02T08:18:45.708Z,2.06
2023-03-02T08:19:45.643Z,2.10
2023-03-02T08:20:45.679Z,2.16
2023-03-02T08:21:45.847Z,2.20
2023-03-02T08:22:45.619Z,2.27
2023-03-02T08:23:45.674Z,2.31
2023-03-02T08:24:45.615Z,2.34
2023-03-02T08:25:45.580Z,2.40
2023-03-02T08:26:45.572Z,2.45
2023-03-02T08:27:45.549Z,2.48
2023-03-02T08:28:45.583Z,2.49
2023-03-02T08:29:45.537Z,2.55
2023-03-02T08:30:45.539Z,2.61
2023-03-02T08:31:45.620Z,2.64
2023-03-02T08:32:45.628Z,2.67
2023-03-02T08:33:45.502Z,2.69
2023-03-02T08:34:45.483Z,2.74
2023-03-02T08:35:45.593Z,2.81
2023-03-02T08:36:45.476Z,2.88
2023-03-02T08:37:45.451Z,2.89
2023-03-02T08:38:45.461Z,2.94
2023-03-02T08:39:45.438Z,3.03
2023-03-02T08:40:45.559Z,3.07
2023-03-02T08:41:45.396Z,3.16
2023-03-02T08:42:45.426Z,3.23
2023-03-02T08:43:45.355Z,3.27
2023-03-02T08:44:45.401Z,3.30
2023-03-02T08:45:45.488Z,3.34
2023-03-02T08:46:45.373Z,3.36
2023-03-02T08:47:45.329Z,3.46
2023-03-02T08:48:45.335Z,3.53
2023-03-02T08:49:46.886Z,3.58
2023-03-02T08:50:45.309Z,3.64
2023-03-02T08:51:45.271Z,3.64
2023-03-02T08:52:45.322Z,3.68
2023-03-02T08:53:45.261Z,3.78
2023-03-02T08:54:45.293Z,3.80
2023-03-02T08:55:45.484Z,3.86
2023-03-02T08:56:45.258Z,3.97
2023-03-02T08:57:45.247Z,3.98
2023-03-02T08:58:45.241Z,4.03
2023-03-02T08:59:45.235Z,4.07
2023-03-02T09:00:45.278Z,4.08
2023-03-02T09:01:45.297Z,4.08
2023-03-02T09:02:45.181Z,4.12
2023-03-02T09:03:45.164Z,4.15
2023-03-02T09:04:45.255Z,4.18
2023-03-02T09:05:45.126Z,4.19
2023-03-02T09:06:45.133Z,4.18
2023-03-02T09:07:45.160Z,4.16
2023-03-02T09:08:45.116Z,4.21
2023-03-02T09:09:45.105Z,4.28
2023-03-02T09:10:45.083Z,4.29
2023-03-02T09:11:45.066Z,4.37
2023-03-02T09:12:45.083Z,4.39
2023-03-02T09:13:45.027Z,4.40
2023-03-02T09:14:45.066Z,4.40
2023-03-02T09:15:45.049Z,4.44
2023-03-02T09:16:45.091Z,4.47
2023-03-02T09:17:44.985Z,4.51
2023-03-02T09:18:45.004Z,4.57
2023-03-02T09:19:44.981Z,4.58
2023-03-02T09:20:45.015Z,4.58
2023-03-02T09:21:44.968Z,4.57
2023-03-02T09:22:44.956Z,4.52
2023-03-02T09:23:44.946Z,4.58
2023-03-02T09:24:45.307Z,4.62
2023-03-02T09:25:46.363Z,4.70
2023-03-02T09:26:44.903Z,4.75
2023-03-02T09:27:44.891Z,4.77
2023-03-02T09:28:44.900Z,4.86
2023-03-02T09:29:44.859Z,4.91
2023-03-02T09:30:44.894Z,4.98
2023-03-02T09:31:44.870Z,5.02
2023-03-02T09:32:45.299Z,5.05
2023-03-02T09:33:44.866Z,5.10
2023-03-02T09:34:44.838Z,5.19
2023-03-02T09:35:44.804Z,5.20
2023-03-02T09:36:44.831Z,5.30
2023-03-02T09:37:44.940Z,5.25
2023-03-02T09:38:44.787Z,5.30
2023-03-02T09:39:44.868Z,5.34
2023-03-02T09:40:44.771Z,5.43
2023-03-02T09:41:44.795Z,5.49
2023-03-02T09:42:44.747Z,5.50
2023-03-02T09:43:44.712Z,5.50
2023-03-02T09:44:44.715Z,5.49
2023-03-02T09:45:44.754Z,5.53
2023-03-02T09:46:44.705Z,5.57
2023-03-02T09:47:44.662Z,5.64
2023-03-02T09:48:44.677Z,5.70
2023-03-02T09:49:44.628Z,5.73
2023-03-02T09:50:44.710Z,5.77
2023-03-02T09:51:44.624Z,5.81
2023-03-02T09:52:44.630Z,5.83
2023-03-02T09:53:44.592Z,5.88
2023-03-02T09:54:44.711Z,5.91
2023-03-02T09:55:44.576Z,5.96
2023-03-02T09:56:44.599Z,6.01
2023-03-02T09:57:44.588Z,6.00
2023-03-02T09:58:44.563Z,6.04
2023-03-02T09:59:44.565Z,6.10
2023-03-02T10:00:44.565Z,6.13
2023-03-02T10:01:44.520Z,6.18
2023-03-02T10:02:44.589Z,6.29
2023-03-02T10:03:44.633Z,6.32
2023-03-02T10:04:44.588Z,6.32
2023-03-02T10:05:44.525Z,6.32
2023-03-02T10:06:44.518Z,6.30
2023-03-02T10:07:44.437Z,6.40
2023-03-02T10:08:44.471Z,6.43
2023-03-02T10:09:44.412Z,6.47
2023-03-02T10:10:44.472Z,6.51
2023-03-02T10:11:44.473Z,6.51
2023-03-02T10:12:44.400Z,6.47
2023-03-02T10:13:46.561Z,6.41
2023-03-02T10:14:44.383Z,6.44
2023-03-02T10:15:44.380Z,6.47
2023-03-02T10:16:44.404Z,6.50
2023-03-02T10:17:44.334Z,6.44
2023-03-02T10:18:44.357Z,6.40
2023-03-02T10:19:44.309Z,6.36
2023-03-02T10:20:44.329Z,6.43
2023-03-02T10:21:44.277Z,6.44
2023-03-02T10:22:44.323Z,6.44
2023-03-02T10:23:44.284Z,6.46
2023-03-02T10:24:44.312Z,6.47
2023-03-02T10:25:44.318Z,6.54
2023-03-02T10:26:44.327Z,6.58
2023-03-02T10:27:44.301Z,6.62
2023-03-02T10:28:45.228Z,6.65
2023-03-02T10:29:44.201Z,6.68
2023-03-02T10:30:44.279Z,6.71
2023-03-02T10:31:44.176Z,6.71
2023-03-02T10:32:44.187Z,6.71
2023-03-02T10:33:44.161Z,6.76
2023-03-02T10:34:44.181Z,6.79
2023-03-02T10:35:44.174Z,6.79
2023-03-02T10:36:44.181Z,6.77
2023-03-02T10:37:44.140Z,6.77
2023-03-02T10:38:44.113Z,6.81
2023-03-02T10:39:44.075Z,6.83
2023-03-02T10:40:44.137Z,6.80
2023-03-02T10:41:44.069Z,6.80
2023-03-02T10:42:44.102Z,6.79
2023-03-02T10:43:44.037Z,6.81
2023-03-02T10:44:44.052Z,6.83
2023-03-02T10:45:44.175Z,6.87
2023-03-02T10:46:44.268Z,6.89
2023-03-02T10:47:43.992Z,6.91
2023-03-02T10:48:49.365Z,6.94
2023-03-02T10:49:45.078Z,6.95
2023-03-02T10:50:44.011Z,6.95
2023-03-02T10:51:43.971Z,6.98
2023-03-02T10:52:51.268Z,6.98
2023-03-02T10:53:44.972Z,7.02
2023-03-02T10:54:43.923Z,7.04
2023-03-02T10:55:43.933Z,7.05
2023-03-02T10:56:43.895Z,7.07
2023-03-02T10:57:43.917Z,7.08
2023-03-02T10:58:43.893Z,7.08
2023-03-02T10:59:43.877Z,7.13
2023-03-02T11:00:43.877Z,7.16
2023-03-02T11:01:43.913Z,7.22
2023-03-02T11:02:43.822Z,7.23
2023-03-02T11:03:43.850Z,7.22
2023-03-02T11:04:43.884Z,7.22
2023-03-02T11:05:43.836Z,7.26
2023-03-02T11:06:43.787Z,7.26
2023-03-02T11:07:43.806Z,7.31
2023-03-02T11:08:43.753Z,7.26
2023-03-02T11:09:43.763Z,7.29
2023-03-02T11:10:44.028Z,7.29
2023-03-02T11:11:43.884Z,7.31
2023-03-02T11:12:43.714Z,7.31
2023-03-02T11:13:43.768Z,7.35
2023-03-02T11:14:43.706Z,7.37
2023-03-02T11:15:43.757Z,7.41
2023-03-02T11:16:43.945Z,7.44
2023-03-02T11:17:43.750Z,7.50
2023-03-02T11:18:43.652Z,7.53
2023-03-02T11:19:43.664Z,7.50
2023-03-02T11:20:43.636Z,7.50
2023-03-02T11:21:43.676Z,7.52
2023-03-02T11:22:43.635Z,7.53
2023-03-02T11:23:43.956Z,7.55
2023-03-02T11:24:43.845Z,7.59
2023-03-02T11:25:43.659Z,7.63
2023-03-02T11:26:43.594Z,7.62
2023-03-02T11:27:43.819Z,7.60
2023-03-02T11:28:44.480Z,7.62
2023-03-02T11:29:43.607Z,7.66
2023-03-02T11:30:43.525Z,7.59
2023-03-02T11:31:43.593Z,7.60
2023-03-02T11:32:43.848Z,7.62
2023-03-02T11:33:43.538Z,7.63
2023-03-02T11:34:43.502Z,7.71
2023-03-02T11:35:43.639Z,7.74
2023-03-02T11:36:43.469Z,7.78
2023-03-02T11:37:45.937Z,7.85
2023-03-02T11:38:44.384Z,7.92
2023-03-02T11:39:53.307Z,7.94
2023-03-02T11:40:46.997Z,7.94
2023-03-02T11:41:43.449Z,7.92
2023-03-02T11:42:43.426Z,7.94
2023-03-02T11:43:43.393Z,8.00
2023-03-02T11:44:43.437Z,8.02
2023-03-02T11:45:43.378Z,8.02
2023-03-02T11:46:43.704Z,8.02
2023-03-02T11:47:45.621Z,8.07
2023-03-02T11:48:43.330Z,8.08
2023-03-02T11:49:43.378Z,8.08
2023-03-02T11:50:43.334Z,8.10
2023-03-02T11:51:50.003Z,8.08
2023-03-02T11:52:44.296Z,8.11
2023-03-02T11:53:43.380Z,8.15
2023-03-02T11:54:43.258Z,8.20
2023-03-02T11:55:43.293Z,8.25
2023-03-02T11:56:43.261Z,8.28
2023-03-02T11:57:44.573Z,8.29
2023-03-02T11:58:43.216Z,8.30
2023-03-02T11:59:43.250Z,8.28
2023-03-02T12:00:43.195Z,8.25
2023-03-02T12:01:43.220Z,8.26
2023-03-02T12:02:43.165Z,8.32
2023-03-02T12:03:43.181Z,8.33
2023-03-02T12:04:43.164Z,8.35
2023-03-02T12:05:44.153Z,8.29
2023-03-02T12:06:43.115Z,8.30
2023-03-02T12:07:43.159Z,8.35
2023-03-02T12:08:43.219Z,8.35
2023-03-02T12:09:43.130Z,8.39
2023-03-02T12:10:43.085Z,8.45
2023-03-02T12:11:43.096Z,8.47
2023-03-02T12:12:43.077Z,8.45
2023-03-02T12:13:43.073Z,8.45
2023-03-02T12:14:43.024Z,8.47
2023-03-02T12:15:43.069Z,8.48
2023-03-02T12:16:43.415Z,8.55
2023-03-02T12:17:43.057Z,8.62
2023-03-02T12:18:43.003Z,8.62
2023-03-02T12:19:43.009Z,8.65
2023-03-02T12:20:43.025Z,8.68
2023-03-02T12:21:43.286Z,8.71
2023-03-02T12:22:42.960Z,8.76
2023-03-02T12:23:42.969Z,8.78
2023-03-02T12:24:42.961Z,8.81
2023-03-02T12:25:44.151Z,8.75
2023-03-02T12:26:42.901Z,8.76
2023-03-02T12:27:42.959Z,8.79
2023-03-02T12:28:42.882Z,8.81
2023-03-02T12:29:42.908Z,8.83
2023-03-02T12:30:42.915Z,8.86
2023-03-02T12:31:42.968Z,8.88
2023-03-02T12:32:42.923Z,8.88
2023-03-02T12:33:42.874Z,8.91
2023-03-02T12:34:42.857Z,8.88
2023-03-02T12:35:42.867Z,8.86
2023-03-02T12:36:42.954Z,8.91
2023-03-02T12:37:42.845Z,8.91
2023-03-02T12:38:42.830Z,8.93
2023-03-02T12:39:42.833Z,8.93
2023-03-02T12:40:42.748Z,8.93
2023-03-02T12:41:42.804Z,8.94
2023-03-02T12:42:42.717Z,8.93
2023-03-02T12:43:42.765Z,8.94
2023-03-02T12:44:42.747Z,9.02
2023-03-02T12:45:42.786Z,9.05
2023-03-02T12:46:42.664Z,9.15
2023-03-02T12:47:43.249Z,9.12
2023-03-02T12:48:43.187Z,9.09
2023-03-02T12:49:42.731Z,9.12
2023-03-02T12:50:42.668Z,9.13
2023-03-02T12:51:42.799Z,9.15
2023-03-02T12:52:42.647Z,9.20
2023-03-02T12:53:42.631Z,9.23
2023-03-02T12:54:42.581Z,9.25
2023-03-02T12:55:42.672Z,9.28
2023-03-02T12:56:42.559Z,9.31
2023-03-02T12:57:42.616Z,9.32
2023-03-02T12:58:42.600Z,9.35
2023-03-02T12:59:42.585Z,9.40
2023-03-02T13:00:42.581Z,9.39
2023-03-02T13:01:42.551Z,9.31
2023-03-02T13:02:42.651Z,9.34
2023-03-02T13:03:42.594Z,9.38
2023-03-02T13:04:42.578Z,9.48
2023-03-02T13:05:42.487Z,9.57
2023-03-02T13:06:42.516Z,9.63